createdAt,value
2022-09-18T00:01:37.003Z,22.11
2022-09-18T00:04:08.453Z,22.12
2022-09-18T00:06:39.399Z,22.11
2022-09-18T00:09:09.205Z,22.12
2022-09-18T00:11:38.980Z,21.88
2022-09-18T00:14:11.114Z,22.12
2022-09-18T00:16:39.727Z,22.11
2022-09-18T00:19:08.516Z,22.12
2022-09-18T00:21:37.590Z,22.11
2022-09-18T00:24:06.884Z,22.10
2022-09-18T00:26:35.621Z,22.11
2022-09-18T00:29:03.807Z,22.11
2022-09-18T00:31:35.373Z,22.12
2022-09-18T00:34:06.208Z,22.06
2022-09-18T00:36:35.355Z,22.12
2022-09-18T00:39:03.875Z,22.11
2022-09-18T00:41:34.677Z,22.10
2022-09-18T00:44:38.173Z,22.11
2022-09-18T00:47:17.550Z,22.09
2022-09-18T00:49:49.156Z,22.10
2022-09-18T00:52:19.974Z,22.12
2022-09-18T00:54:52.172Z,22.10
2022-09-18T00:57:23.729Z,22.11
2022-09-18T00:59:54.184Z,22.11
2022-09-18T01:02:24.188Z,22.11
2022-09-18T01:04:52.841Z,22.08
2022-09-18T01:07:36.681Z,22.11
2022-09-18T01:10:19.529Z,22.11
2022-09-18T01:12:56.128Z,22.10
2022-09-18T01:15:31.934Z,22.09
2022-09-18T01:18:11.867Z,22.09
2022-09-18T01:21:08.914Z,22.09
2022-09-18T01:24:19.302Z,22.09
2022-09-18T01:27:00.327Z,22.08
2022-09-18T01:29:41.046Z,22.02
2022-09-18T01:32:16.720Z,21.97
2022-09-18T01:34:49.294Z,22.08
2022-09-18T01:37:22.356Z,22.08
2022-09-18T01:39:55.476Z,22.06
2022-09-18T01:42:28.863Z,22.08
2022-09-18T01:45:03.053Z,22.08
2022-09-18T01:47:37.718Z,22.08
2022-09-18T01:50:08.350Z,22.09
2022-09-18T01:52:39.539Z,22.09
2022-09-18T01:55:15.373Z,22.10
2022-09-18T01:57:50.280Z,22.09
2022-09-18T02:00:20.741Z,22.10
2022-09-18T02:02:53.032Z,22.09
2022-09-18T02:05:27.589Z,22.10
2022-09-18T02:08:07.554Z,22.11
2022-09-18T02:10:39.598Z,22.10
2022-09-18T02:13:09.943Z,22.10
2022-09-18T02:15:42.788Z,22.10
2022-09-18T02:18:16.627Z,22.10
2022-09-18T02:20:46.853Z,22.10
2022-09-18T02:23:15.854Z,22.09
2022-09-18T02:25:47.140Z,22.10
2022-09-18T02:28:18.494Z,21.53
2022-09-18T02:30:48.541Z,22.09
2022-09-18T02:33:28.486Z,22.10
2022-09-18T02:36:18.738Z,22.09
2022-09-18T02:38:54.676Z,22.05
2022-09-18T02:41:33.388Z,21.95
2022-09-18T02:44:10.052Z,22.08
2022-09-18T02:46:49.159Z,22.08
2022-09-18T02:49:29.339Z,22.08
2022-09-18T02:52:04.585Z,22.08
2022-09-18T02:54:40.276Z,22.06
2022-09-18T02:57:15.304Z,22.05
2022-09-18T02:59:48.024Z,22.07
2022-09-18T03:02:17.681Z,22.06
2022-09-18T03:04:45.892Z,22.07
2022-09-18T03:07:15.995Z,22.07
2022-09-18T03:09:44.553Z,22.08
2022-09-18T03:12:13.056Z,22.08
2022-09-18T03:14:41.205Z,22.05
2022-09-18T03:17:10.499Z,22.08
2022-09-18T03:19:39.985Z,22.07
2022-09-18T03:22:08.317Z,22.05
2022-09-18T03:24:36.447Z,22.07
2022-09-18T03:27:05.146Z,22.07
2022-09-18T03:29:33.236Z,22.07
2022-09-18T03:32:01.335Z,22.07
2022-09-18T03:34:29.485Z,22.06
2022-09-18T03:36:59.050Z,22.06
2022-09-18T03:39:27.181Z,22.07
2022-09-18T03:41:55.298Z,22.08
2022-09-18T03:44:23.380Z,22.08
2022-09-18T03:46:51.542Z,22.07
2022-09-18T03:49:19.683Z,22.08
2022-09-18T03:51:47.794Z,22.07
2022-09-18T03:54:17.510Z,22.05
2022-09-18T03:56:46.146Z,22.03
2022-09-18T03:59:14.257Z,22.06
2022-09-18T04:01:42.570Z,22.06
2022-09-18T04:04:10.930Z,22.06
2022-09-18T04:06:39.027Z,22.07
2022-09-18T04:09:07.193Z,22.07
2022-09-18T04:11:36.650Z,22.07
2022-09-18T04:14:04.754Z,22.06
2022-09-18T04:16:32.900Z,22.00
2022-09-18T04:19:01.012Z,22.07
2022-09-18T04:21:29.106Z,22.07
2022-09-18T04:23:59.956Z,22.07
2022-09-18T04:26:28.143Z,22.07
2022-09-18T04:28:57.598Z,22.08
2022-09-18T04:31:25.766Z,22.05
2022-09-18T04:33:53.875Z,22.07
2022-09-18T04:36:22.052Z,22.07
2022-09-18T04:38:50.181Z,22.07
2022-09-18T04:41:18.258Z,22.07
2022-09-18T04:43:46.374Z,22.06
2022-09-18T04:46:16.072Z,22.07
2022-09-18T04:48:49.363Z,22.07
2022-09-18T04:51:17.720Z,22.07
2022-09-18T04:53:45.890Z,22.07
2022-09-18T04:56:13.945Z,22.06
2022-09-18T04:58:42.053Z,22.07
2022-09-18T05:01:10.306Z,21.99
2022-09-18T05:03:39.824Z,22.07
2022-09-18T05:06:08.267Z,22.07
2022-09-18T05:08:37.324Z,22.06
2022-09-18T05:11:05.621Z,22.07
2022-09-18T05:13:33.729Z,22.07
2022-09-18T05:16:02.158Z,22.07
2022-09-18T05:18:30.316Z,22.06
2022-09-18T05:21:02.542Z,22.06
2022-09-18T05:23:31.990Z,22.05
2022-09-18T05:26:00.100Z,22.06
2022-09-18T05:28:28.190Z,22.05
2022-09-18T05:30:59.929Z,22.05
2022-09-18T05:33:28.085Z,22.05
2022-09-18T05:35:57.027Z,22.05
2022-09-18T05:38:26.920Z,22.06
2022-09-18T05:40:55.033Z,22.05
2022-09-18T05:43:23.136Z,22.04
2022-09-18T05:45:51.221Z,22.04
2022-09-18T05:48:19.327Z,22.05
2022-09-18T05:50:48.495Z,22.05
2022-09-18T05:53:17.948Z,21.68
2022-09-18T05:55:47.801Z,21.92
2022-09-18T05:58:17.309Z,22.02
2022-09-18T06:00:46.199Z,22.05
2022-09-18T06:03:16.121Z,22.05
2022-09-18T06:05:46.325Z,22.05
2022-09-18T06:08:14.437Z,22.03
2022-09-18T06:10:42.550Z,22.05
2022-09-18T06:13:15.629Z,21.84
2022-09-18T06:15:46.217Z,22.04
2022-09-18T06:18:15.187Z,22.05
2022-09-18T06:20:43.753Z,22.04
2022-09-18T06:23:12.224Z,22.05
2022-09-18T06:25:40.309Z,22.05
2022-09-18T06:28:08.400Z,22.02
2022-09-18T06:30:38.293Z,22.05
2022-09-18T06:33:08.205Z,22.05
2022-09-18T06:35:38.367Z,22.02
2022-09-18T06:38:08.109Z,22.04
2022-09-18T06:40:36.578Z,22.05
2022-09-18T06:43:05.140Z,22.04
2022-09-18T06:45:33.587Z,21.87
2022-09-18T06:48:06.540Z,22.03
2022-09-18T06:50:34.662Z,22.04
2022-09-18T06:53:07.673Z,22.04
2022-09-18T06:55:38.307Z,22.02
2022-09-18T06:58:06.397Z,22.04
2022-09-18T07:00:35.200Z,22.04
2022-09-18T07:03:05.614Z,22.03
2022-09-18T07:05:34.359Z,21.98
2022-09-18T07:08:02.828Z,22.02
2022-09-18T07:10:30.946Z,22.02
2022-09-18T07:12:59.227Z,22.03
2022-09-18T07:15:28.273Z,22.03
2022-09-18T07:17:57.729Z,22.04
2022-09-18T07:20:27.262Z,22.04
2022-09-18T07:22:56.246Z,22.04
2022-09-18T07:25:24.765Z,21.96
2022-09-18T07:27:53.018Z,22.05
2022-09-18T07:30:21.489Z,22.05
2022-09-18T07:32:50.097Z,22.06
2022-09-18T07:35:18.328Z,22.05
2022-09-18T07:37:47.846Z,22.06
2022-09-18T07:40:16.110Z,22.05
2022-09-18T07:42:44.220Z,22.04
2022-09-18T07:45:13.213Z,22.00
2022-09-18T07:47:41.333Z,22.04
2022-09-18T07:50:15.724Z,22.05
2022-09-18T07:52:52.363Z,22.05
2022-09-18T07:55:21.234Z,22.02
2022-09-18T07:57:49.612Z,22.04
2022-09-18T08:00:17.927Z,22.04
2022-09-18T08:02:46.433Z,22.04
2022-09-18T08:05:14.731Z,22.05
2022-09-18T08:07:42.961Z,22.04
2022-09-18T08:10:12.816Z,22.04
2022-09-18T08:12:40.973Z,22.04
2022-09-18T08:15:10.044Z,22.05
2022-09-18T08:17:45.490Z,22.02
2022-09-18T08:20:14.977Z,22.05
2022-09-18T08:22:43.660Z,22.05
2022-09-18T08:25:13.178Z,22.05
2022-09-18T08:27:41.988Z,22.06
2022-09-18T08:30:12.379Z,22.04
2022-09-18T08:32:40.627Z,22.06
2022-09-18T08:35:09.877Z,22.05
2022-09-18T08:37:37.982Z,22.01
2022-09-18T08:40:09.034Z,22.04
2022-09-18T08:42:48.353Z,22.05
2022-09-18T08:45:36.604Z,22.03
2022-09-18T08:48:13.003Z,22.06
2022-09-18T08:50:44.116Z,22.06
2022-09-18T08:53:17.249Z,22.05
2022-09-18T08:55:49.879Z,22.05
2022-09-18T08:58:26.205Z,22.05
2022-09-18T09:00:58.090Z,22.04
2022-09-18T09:03:35.075Z,22.02
2022-09-18T09:06:13.398Z,22.02
2022-09-18T09:09:15.860Z,22.03
2022-09-18T09:11:55.014Z,22.04
2022-09-18T09:14:56.135Z,22.04
2022-09-18T09:17:39.856Z,22.03
2022-09-18T09:20:21.441Z,22.02
2022-09-18T09:22:57.567Z,22.03
2022-09-18T09:25:31.532Z,22.04
2022-09-18T09:28:06.618Z,22.03
2022-09-18T09:30:37.717Z,22.03
2022-09-18T09:33:13.216Z,21.97
2022-09-18T09:35:46.104Z,22.02
2022-09-18T09:38:38.911Z,22.03
2022-09-18T09:41:15.370Z,22.03
2022-09-18T09:43:48.700Z,22.03
2022-09-18T09:46:29.188Z,22.02
2022-09-18T09:49:06.430Z,22.04
2022-09-18T09:51:44.486Z,22.04
2022-09-18T09:54:13.699Z,22.03
2022-09-18T09:56:49.273Z,22.03
2022-09-18T09:59:25.217Z,22.02
2022-09-18T10:02:01.003Z,22.04
2022-09-18T10:04:40.363Z,21.88
2022-09-18T10:07:18.941Z,22.05
2022-09-18T10:09:54.201Z,22.04
2022-09-18T10:12:32.013Z,22.03
2022-09-18T10:15:12.682Z,21.98
2022-09-18T10:17:43.322Z,22.04
2022-09-18T10:20:17.313Z,22.04
2022-09-18T10:22:47.600Z,22.03
2022-09-18T10:25:23.588Z,22.04
2022-09-18T10:27:51.673Z,22.04
2022-09-18T10:30:19.963Z,22.05
2022-09-18T10:32:49.462Z,22.05
2022-09-18T10:35:41.496Z,22.05
2022-09-18T10:38:33.550Z,22.03
2022-09-18T10:41:31.997Z,22.04
2022-09-18T10:44:07.185Z,22.02
2022-09-18T10:46:37.763Z,22.03
2022-09-18T10:49:19.932Z,21.83
2022-09-18T10:51:48.058Z,22.03
2022-09-18T10:54:18.663Z,22.03
2022-09-18T10:56:47.251Z,22.05
2022-09-18T10:59:35.626Z,22.04
2022-09-18T11:02:07.674Z,22.03
2022-09-18T11:04:38.482Z,22.05
2022-09-18T11:07:08.055Z,22.05
2022-09-18T11:09:39.726Z,22.06
2022-09-18T11:12:16.250Z,22.06
2022-09-18T11:14:47.649Z,22.04
2022-09-18T11:17:34.604Z,22.07
2022-09-18T11:20:06.605Z,22.05
2022-09-18T11:22:40.339Z,22.06
2022-09-18T11:25:19.365Z,22.05
2022-09-18T11:27:49.889Z,22.06
2022-09-18T11:30:22.963Z,22.06
2022-09-18T11:32:54.619Z,22.05
2022-09-18T11:35:25.763Z,22.05
2022-09-18T11:37:56.052Z,22.05
2022-09-18T11:40:27.359Z,22.05
2022-09-18T11:42:56.862Z,22.05
2022-09-18T11:45:41.138Z,21.95
2022-09-18T11:48:24.249Z,22.06
2022-09-18T11:50:58.842Z,22.06
2022-09-18T11:53:30.466Z,22.05
2022-09-18T11:56:03.809Z,21.87
2022-09-18T11:58:35.733Z,22.06
2022-09-18T12:01:14.958Z,22.05
2022-09-18T12:03:49.597Z,22.06
2022-09-18T12:06:32.815Z,22.04
2022-09-18T12:09:05.273Z,22.06
2022-09-18T12:11:37.874Z,22.07
2022-09-18T12:14:15.658Z,22.06
2022-09-18T12:16:48.189Z,22.05
2022-09-18T12:19:22.318Z,22.07
2022-09-18T12:21:58.773Z,22.06
2022-09-18T12:24:27.304Z,22.05
2022-09-18T12:27:07.510Z,22.05
2022-09-18T12:29:53.923Z,22.07
2022-09-18T12:32:35.289Z,22.07
2022-09-18T12:35:15.362Z,22.07
2022-09-18T12:37:54.869Z,22.06
2022-09-18T12:40:35.700Z,22.01
2022-09-18T12:43:25.205Z,22.06
2022-09-18T12:46:23.977Z,22.06
2022-09-18T12:49:16.022Z,22.06
2022-09-18T12:51:47.963Z,22.05
2022-09-18T12:54:51.311Z,22.06
2022-09-18T12:57:33.046Z,22.06
2022-09-18T13:00:05.291Z,21.96
2022-09-18T13:02:48.061Z,22.05
2022-09-18T13:05:22.511Z,22.07
2022-09-18T13:07:55.608Z,22.06
2022-09-18T13:10:28.693Z,22.04
2022-09-18T13:13:03.368Z,22.07
2022-09-18T13:15:35.634Z,22.05
2022-09-18T13:18:18.657Z,22.07
2022-09-18T13:20:47.419Z,22.07
2022-09-18T13:23:20.552Z,22.06
2022-09-18T13:25:51.790Z,22.07
2022-09-18T13:28:24.236Z,22.07
2022-09-18T13:31:24.760Z,22.07
2022-09-18T13:33:56.317Z,22.07
2022-09-18T13:36:26.480Z,22.07
2022-09-18T13:38:56.050Z,22.07
2022-09-18T13:41:24.835Z,22.08
2022-09-18T13:43:56.836Z,22.08
2022-09-18T13:46:36.775Z,22.07
2022-09-18T13:49:19.336Z,22.07
2022-09-18T13:51:48.101Z,22.08
2022-09-18T13:54:25.241Z,22.08
2022-09-18T13:57:22.222Z,22.07
2022-09-18T13:59:54.275Z,22.05
2022-09-18T14:02:37.675Z,22.07
2022-09-18T14:05:31.039Z,22.08
2022-09-18T14:08:11.119Z,22.08
2022-09-18T14:11:16.739Z,22.08
2022-09-18T14:13:51.918Z,22.07
2022-09-18T14:16:41.470Z,22.06
2022-09-18T14:19:33.175Z,22.07
2022-09-18T14:22:02.625Z,22.05
2022-09-18T14:24:57.012Z,22.05
2022-09-18T14:27:48.874Z,22.05
2022-09-18T14:30:23.374Z,22.05
2022-09-18T14:33:20.506Z,22.04
2022-09-18T14:35:58.475Z,22.05
2022-09-18T14:38:29.805Z,22.03
2022-09-18T14:41:06.082Z,22.06
2022-09-18T14:43:34.316Z,22.06
2022-09-18T14:46:02.550Z,22.06
2022-09-18T14:48:36.972Z,22.07
2022-09-18T14:51:07.514Z,22.07
2022-09-18T14:53:44.197Z,22.07
2022-09-18T14:56:16.218Z,22.07
2022-09-18T14:58:47.856Z,22.07
2022-09-18T15:01:20.092Z,22.08
2022-09-18T15:03:51.523Z,21.89
2022-09-18T15:06:22.517Z,22.08
2022-09-18T15:08:53.212Z,22.09
2022-09-18T15:11:24.468Z,22.08
2022-09-18T15:13:54.187Z,22.08
2022-09-18T15:16:27.229Z,22.09
2022-09-18T15:18:57.723Z,22.09
2022-09-18T15:21:32.429Z,22.09
2022-09-18T15:24:03.935Z,22.10
2022-09-18T15:26:36.715Z,22.09
2022-09-18T15:29:14.171Z,22.11
2022-09-18T15:31:42.496Z,22.09
2022-09-18T15:34:18.409Z,22.09
2022-09-18T15:36:47.693Z,22.09
2022-09-18T15:39:31.095Z,22.07
2022-09-18T15:42:15.619Z,22.03
2022-09-18T15:45:19.676Z,22.09
2022-09-18T15:47:47.947Z,22.07
2022-09-18T15:50:43.328Z,22.09
2022-09-18T15:53:27.672Z,22.07
2022-09-18T15:55:59.807Z,22.08
2022-09-18T15:58:42.504Z,22.09
2022-09-18T16:01:24.981Z,22.09
2022-09-18T16:04:09.203Z,22.09
2022-09-18T16:06:44.645Z,22.09
2022-09-18T16:09:26.267Z,22.08
2022-09-18T16:11:54.748Z,22.08
2022-09-18T16:14:50.159Z,22.10
2022-09-18T16:17:55.417Z,22.08
2022-09-18T16:20:30.278Z,22.08
2022-09-18T16:23:08.712Z,22.07
2022-09-18T16:25:41.344Z,22.07
2022-09-18T16:28:24.094Z,22.08
2022-09-18T16:30:52.941Z,22.07
2022-09-18T16:33:23.435Z,22.04
2022-09-18T16:35:57.100Z,22.06
2022-09-18T16:38:26.745Z,22.09
2022-09-18T16:40:55.148Z,22.09
2022-09-18T16:43:23.586Z,22.09
2022-09-18T16:45:51.802Z,22.09
2022-09-18T16:48:20.692Z,22.09
2022-09-18T16:50:48.894Z,22.10
2022-09-18T16:53:17.601Z,22.11
2022-09-18T16:55:50.949Z,22.08
2022-09-18T16:58:20.961Z,22.10
2022-09-18T17:00:49.339Z,22.10
2022-09-18T17:03:18.711Z,22.10
2022-09-18T17:05:46.870Z,22.04
2022-09-18T17:08:15.006Z,22.08
2022-09-18T17:10:45.129Z,22.09
2022-09-18T17:13:15.478Z,22.08
2022-09-18T17:15:43.695Z,22.09
2022-09-18T17:18:11.822Z,22.09
2022-09-18T17:20:39.903Z,22.10
2022-09-18T17:23:08.445Z,22.10
2022-09-18T17:25:36.985Z,22.11
2022-09-18T17:28:05.110Z,22.12
2022-09-18T17:30:34.640Z,22.13
2022-09-18T17:33:02.800Z,22.10
2022-09-18T17:35:30.908Z,22.11
2022-09-18T17:37:59.042Z,22.11
2022-09-18T17:40:27.174Z,22.12
2022-09-18T17:42:55.347Z,22.12
2022-09-18T17:45:23.439Z,22.11
2022-09-18T17:47:54.975Z,22.11
2022-09-18T17:50:24.866Z,22.11
2022-09-18T17:52:52.968Z,22.10
2022-09-18T17:55:21.098Z,22.11
2022-09-18T17:57:52.913Z,22.10
2022-09-18T18:00:21.893Z,22.09
2022-09-18T18:02:50.270Z,22.07
2022-09-18T18:05:19.942Z,22.06
2022-09-18T18:07:48.050Z,22.01
2022-09-18T18:10:16.155Z,22.04
2022-09-18T18:12:44.258Z,22.04
2022-09-18T18:15:12.349Z,22.04
2022-09-18T18:17:40.450Z,22.02
2022-09-18T18:20:09.853Z,22.02
2022-09-18T18:22:39.312Z,22.03
2022-09-18T18:25:08.741Z,22.01
2022-09-18T18:27:36.961Z,22.00
2022-09-18T18:30:06.896Z,22.00
2022-09-18T18:32:35.408Z,21.98
2022-09-18T18:35:03.500Z,21.98
2022-09-18T18:37:33.848Z,21.97
2022-09-18T18:40:04.040Z,21.98
2022-09-18T18:42:32.675Z,21.96
2022-09-18T18:45:01.148Z,21.97
2022-09-18T18:47:29.742Z,21.94
2022-09-18T18:49:58.173Z,21.96
2022-09-18T18:52:26.741Z,21.96
2022-09-18T18:54:54.890Z,21.96
2022-09-18T18:57:24.492Z,21.79
2022-09-18T18:59:52.547Z,21.95
2022-09-18T19:02:20.651Z,21.95
2022-09-18T19:04:48.772Z,21.92
2022-09-18T19:07:17.647Z,21.96
2022-09-18T19:09:45.742Z,21.96
2022-09-18T19:12:14.207Z,21.95
2022-09-18T19:14:43.780Z,21.94
2022-09-18T19:17:14.021Z,21.94
2022-09-18T19:19:42.452Z,21.93
2022-09-18T19:22:13.109Z,21.92
2022-09-18T19:24:41.205Z,21.90
2022-09-18T19:27:10.362Z,21.92
2022-09-18T19:29:39.609Z,21.92
2022-09-18T19:32:09.612Z,21.84
2022-09-18T19:34:38.042Z,21.91
2022-09-18T19:37:11.340Z,21.91
2022-09-18T19:39:39.926Z,21.88
2022-09-18T19:42:14.803Z,21.90
2022-09-18T19:44:46.284Z,21.90
2022-09-18T19:47:21.317Z,21.90
2022-09-18T19:49:50.988Z,21.90
2022-09-18T19:52:21.175Z,21.89
2022-09-18T19:54:50.942Z,21.87
2022-09-18T19:57:20.024Z,21.87
2022-09-18T19:59:50.189Z,21.87
2022-09-18T20:02:20.207Z,21.85
2022-09-18T20:04:48.396Z,21.82
2022-09-18T20:07:16.730Z,21.85
2022-09-18T20:09:44.873Z,21.86
2022-09-18T20:12:13.104Z,21.85
2022-09-18T20:14:41.344Z,21.85
2022-09-18T20:17:10.016Z,21.86
2022-09-18T20:19:39.528Z,21.85
2022-09-18T20:22:07.878Z,21.85
2022-09-18T20:24:35.992Z,21.85
2022-09-18T20:27:04.156Z,21.82
2022-09-18T20:29:32.267Z,21.82
2022-09-18T20:32:00.374Z,21.81
2022-09-18T20:34:28.515Z,21.83
2022-09-18T20:36:58.041Z,21.83
2022-09-18T20:39:26.195Z,21.79
2022-09-18T20:41:55.495Z,21.83
2022-09-18T20:44:23.597Z,21.83
2022-09-18T20:46:56.658Z,21.83
2022-09-18T20:49:25.013Z,21.84
2022-09-18T20:51:53.320Z,21.82
2022-09-18T20:54:22.931Z,21.84
2022-09-18T20:56:51.014Z,21.83
2022-09-18T20:59:21.033Z,21.82
2022-09-18T21:01:49.952Z,21.80
2022-09-18T21:04:19.942Z,21.81
2022-09-18T21:06:54.521Z,21.82
2022-09-18T21:09:24.701Z,21.80
2022-09-18T21:11:52.852Z,21.80
2022-09-18T21:14:21.308Z,21.80
2022-09-18T21:16:49.998Z,21.80
2022-09-18T21:19:21.005Z,21.78
2022-09-18T21:21:49.831Z,21.78
2022-09-18T21:24:18.145Z,21.77
2022-09-18T21:26:49.158Z,21.78
2022-09-18T21:29:20.638Z,21.78
2022-09-18T21:31:50.646Z,21.78
2022-09-18T21:34:24.017Z,21.67
2022-09-18T21:36:53.036Z,21.77
2022-09-18T21:39:21.145Z,21.77
2022-09-18T21:41:53.390Z,21.77
2022-09-18T21:44:26.965Z,21.77
2022-09-18T21:46:56.131Z,21.77
2022-09-18T21:49:24.348Z,21.77
2022-09-18T21:51:56.105Z,21.74
2022-09-18T21:54:25.498Z,21.75
2022-09-18T21:56:56.678Z,21.78
2022-09-18T21:59:26.256Z,21.78
2022-09-18T22:01:55.311Z,21.75
2022-09-18T22:04:26.369Z,21.77
2022-09-18T22:06:55.893Z,21.56
2022-09-18T22:09:25.979Z,21.77
2022-09-18T22:11:56.782Z,21.76
2022-09-18T22:14:26.623Z,21.68
2022-09-18T22:16:55.614Z,21.75
2022-09-18T22:19:23.978Z,21.74
2022-09-18T22:21:54.921Z,21.74
2022-09-18T22:24:26.028Z,21.75
2022-09-18T22:26:57.804Z,21.74
2022-09-18T22:29:28.083Z,21.74
2022-09-18T22:31:56.708Z,21.74
2022-09-18T22:34:27.421Z,21.72
2022-09-18T22:36:56.125Z,21.76
2022-09-18T22:39:24.364Z,21.73
2022-09-18T22:41:53.155Z,21.74
2022-09-18T22:44:22.887Z,21.75
2022-09-18T22:46:53.216Z,21.71
2022-09-18T22:49:23.328Z,21.75
2022-09-18T22:51:52.409Z,21.76
2022-09-18T22:54:24.806Z,21.77
2022-09-18T22:56:54.132Z,21.76
2022-09-18T22:59:26.966Z,21.75
2022-09-18T23:01:57.663Z,21.75
2022-09-18T23:04:29.290Z,21.75
2022-09-18T23:06:58.392Z,21.73
2022-09-18T23:09:27.452Z,21.75
2022-09-18T23:11:55.799Z,21.74
2022-09-18T23:14:27.763Z,21.74
2022-09-18T23:16:56.865Z,21.73
2022-09-18T23:19:27.164Z,21.54
2022-09-18T23:21:56.045Z,21.74
2022-09-18T23:24:24.896Z,21.73
2022-09-18T23:26:55.067Z,21.74
2022-09-18T23:29:26.301Z,21.73
2022-09-18T23:31:57.439Z,21.61
2022-09-18T23:34:28.905Z,21.74
2022-09-18T23:37:00.830Z,21.73
2022-09-18T23:39:30.762Z,21.74
2022-09-18T23:42:01.410Z,21.73
2022-09-18T23:44:31.704Z,21.73
2022-09-18T23:47:00.948Z,21.73
2022-09-18T23:49:29.872Z,21.72
2022-09-18T23:51:59.484Z,21.73
2022-09-18T23:54:29.407Z,21.73
2022-09-18T23:56:57.734Z,21.74
2022-09-18T23:59:27.348Z,21.74
